Terminal Aerodrome Forecast
Issued by NWS

Home | Current Version | Previous Version | Text Only | Print | Product List | Glossary On
Versions: 1 2 3 4 5 6 7 8 9 10 11 12 13 14 15 16 17 18 19 20 21 22
000
FTUS44 KLZK 302334
TAFLIT
TAF
KLIT 302334Z 3100/3124 VRB05KT P6SM -RA VCTS SCT015 BKN030CB OVC250
      TEMPO 3100/3102 4SM -RA BR BKN030 OVC100
     FM310200 20004KT P6SM SCT040 SCT100 BKN250
     FM310900 VRB03KT 6SM BR FEW008 SCT015 BKN250
      TEMPO 3111/3114 4SM BR BKN015
     FM311500 20005KT P6SM SCT020 BKN035 BKN250
     FM311800 20006KT P6SM VCTS SCT050CB BKN250=

USA.gov is the U.S. government's official web portal to all federal, state and local government web resources and services.